createdAt,value
2018-12-06T00:01:43.900Z,18.17
2018-12-06T00:04:12.307Z,12.98
2018-12-06T00:06:40.544Z,11.30
2018-12-06T00:09:08.855Z,12.15
2018-12-06T00:11:37.488Z,9.10
2018-12-06T00:14:05.814Z,17.70
2018-12-06T00:16:34.035Z,13.93
2018-12-06T00:19:08.718Z,13.93
2018-12-06T00:21:36.998Z,14.58
2018-12-06T00:24:05.302Z,10.88
2018-12-06T00:26:33.590Z,16.85
2018-12-06T00:29:01.854Z,16.87
2018-12-06T00:31:29.983Z,14.23
2018-12-06T00:33:58.342Z,13.10
2018-12-06T00:36:26.567Z,13.08
2018-12-06T00:38:54.758Z,11.73
2018-12-06T00:41:23.103Z,12.00
2018-12-06T00:43:51.249Z,11.68
2018-12-06T00:46:19.545Z,18.80
2018-12-06T00:48:47.710Z,20.52
2018-12-06T00:51:15.898Z,14.28
2018-12-06T00:53:44.053Z,22.82
2018-12-06T00:56:12.342Z,18.95
2018-12-06T00:58:40.541Z,13.28
2018-12-06T01:01:08.881Z,11.68
2018-12-06T01:03:37.940Z,14.25
2018-12-06T01:06:06.222Z,11.97
2018-12-06T01:08:34.513Z,14.90
2018-12-06T01:11:02.818Z,13.78
2018-12-06T01:13:31.078Z,19.60
2018-12-06T01:15:59.224Z,23.38
2018-12-06T01:18:27.388Z,10.72
2018-12-06T01:20:55.657Z,16.32
2018-12-06T01:23:24.197Z,13.88
2018-12-06T01:25:52.438Z,12.63
2018-12-06T01:28:20.647Z,12.63
2018-12-06T01:30:48.879Z,13.40
2018-12-06T01:33:17.000Z,12.35
2018-12-06T01:35:45.225Z,13.43
2018-12-06T01:38:13.454Z,12.60
2018-12-06T01:40:41.707Z,17.32
2018-12-06T01:43:09.902Z,14.00
2018-12-06T01:45:38.245Z,17.07
2018-12-06T01:48:06.564Z,14.18
2018-12-06T01:50:34.731Z,12.43
2018-12-06T01:53:02.997Z,11.03
2018-12-06T01:55:31.175Z,11.95
2018-12-06T01:57:59.453Z,8.03
2018-12-06T02:00:27.802Z,14.35
2018-12-06T02:02:56.043Z,11.85
2018-12-06T02:05:24.351Z,12.80
2018-12-06T02:07:52.567Z,10.05
2018-12-06T02:10:20.841Z,11.48
2018-12-06T02:12:49.090Z,13.55
2018-12-06T02:15:17.269Z,10.25
2018-12-06T02:17:45.401Z,12.20
2018-12-06T02:20:13.791Z,21.10
2018-12-06T02:22:42.011Z,11.68
2018-12-06T02:25:10.321Z,12.20
2018-12-06T02:27:38.439Z,22.77
2018-12-06T02:30:06.667Z,15.48
2018-12-06T02:32:34.916Z,14.20
2018-12-06T02:35:03.181Z,11.48
2018-12-06T02:37:31.510Z,12.50
2018-12-06T02:39:59.732Z,12.37
2018-12-06T02:42:27.895Z,13.98
2018-12-06T02:44:56.078Z,11.50
2018-12-06T02:47:24.244Z,13.28
2018-12-06T02:49:52.579Z,15.13
2018-12-06T02:52:20.955Z,14.98
2018-12-06T02:54:49.171Z,17.25
2018-12-06T02:57:17.318Z,13.95
2018-12-06T02:59:45.447Z,12.05
2018-12-06T03:02:13.591Z,11.57
2018-12-06T03:04:41.874Z,10.23
2018-12-06T03:07:10.003Z,14.07
2018-12-06T03:09:38.291Z,20.55
2018-12-06T03:12:06.486Z,17.95
2018-12-06T03:14:34.665Z,15.18
2018-12-06T03:17:03.050Z,17.82
2018-12-06T03:19:31.162Z,12.63
2018-12-06T03:21:59.430Z,10.80
2018-12-06T03:24:27.791Z,19.05
2018-12-06T03:26:55.959Z,13.13
2018-12-06T03:29:24.218Z,15.40
2018-12-06T03:31:52.391Z,19.80
2018-12-06T03:34:20.611Z,14.87
2018-12-06T03:36:48.750Z,14.00
2018-12-06T03:39:16.964Z,15.25
2018-12-06T03:41:45.288Z,17.42
2018-12-06T03:44:13.535Z,13.10
2018-12-06T03:46:41.691Z,12.33
2018-12-06T03:49:09.823Z,20.57
2018-12-06T03:51:38.059Z,23.52
2018-12-06T03:54:06.267Z,13.18
2018-12-06T03:56:34.427Z,13.30
2018-12-06T03:59:02.625Z,16.70
2018-12-06T04:01:30.799Z,12.33
2018-12-06T04:03:59.011Z,14.63
2018-12-06T04:06:27.298Z,19.77
2018-12-06T04:08:55.590Z,14.23
2018-12-06T04:11:23.802Z,14.68
2018-12-06T04:13:51.955Z,19.52
2018-12-06T04:16:20.219Z,16.00
2018-12-06T04:18:48.376Z,18.57
2018-12-06T04:21:16.520Z,18.82
2018-12-06T04:23:44.670Z,20.50
2018-12-06T04:26:12.904Z,17.50
2018-12-06T04:28:41.132Z,16.75
2018-12-06T04:31:09.482Z,15.58
2018-12-06T04:33:37.667Z,15.98
2018-12-06T04:36:05.838Z,21.50
2018-12-06T04:38:34.143Z,15.23
2018-12-06T04:41:02.339Z,16.60
2018-12-06T04:43:30.800Z,19.62
2018-12-06T04:45:58.979Z,13.78
2018-12-06T04:48:27.125Z,13.32
2018-12-06T04:50:55.380Z,17.67
2018-12-06T04:53:23.547Z,22.98
2018-12-06T04:55:51.768Z,19.57
2018-12-06T04:58:19.976Z,20.52
2018-12-06T05:00:48.165Z,16.27
2018-12-06T05:03:16.306Z,19.73
2018-12-06T05:05:44.459Z,21.25
2018-12-06T05:08:12.703Z,22.02
2018-12-06T05:10:41.091Z,20.85
2018-12-06T05:13:09.246Z,17.32
2018-12-06T05:15:37.588Z,17.48
2018-12-06T05:18:05.749Z,21.90
2018-12-06T05:20:33.878Z,22.22
2018-12-06T05:23:02.144Z,17.10
2018-12-06T05:25:30.302Z,21.82
2018-12-06T05:27:58.571Z,15.95
2018-12-06T05:30:26.698Z,17.02
2018-12-06T05:32:54.866Z,16.87
2018-12-06T05:35:23.014Z,17.92
2018-12-06T05:37:51.186Z,23.27
2018-12-06T05:40:19.334Z,19.82
2018-12-06T05:42:47.753Z,19.27
2018-12-06T05:45:16.020Z,19.57
2018-12-06T05:47:44.296Z,24.40
2018-12-06T05:50:12.462Z,21.87
2018-12-06T05:52:40.643Z,24.57
2018-12-06T05:55:08.818Z,24.32
2018-12-06T05:57:36.983Z,20.90
2018-12-06T06:00:06.539Z,22.93
2018-12-06T06:02:41.356Z,22.77
2018-12-06T06:05:09.967Z,15.48
2018-12-06T06:07:38.130Z,19.02
2018-12-06T06:10:06.419Z,17.12
2018-12-06T06:12:34.658Z,15.58
2018-12-06T06:15:02.899Z,18.62
2018-12-06T06:17:31.153Z,17.40
2018-12-06T06:19:59.317Z,23.35
2018-12-06T06:22:27.450Z,18.80
2018-12-06T06:24:55.586Z,16.30
2018-12-06T06:27:23.792Z,20.82
2018-12-06T06:29:51.952Z,28.07
2018-12-06T06:32:20.178Z,20.92
2018-12-06T06:34:48.331Z,21.23
2018-12-06T06:37:16.505Z,17.85
2018-12-06T06:39:44.726Z,15.48
2018-12-06T06:42:12.944Z,22.05
2018-12-06T06:44:41.098Z,26.17
2018-12-06T06:47:09.225Z,15.05
2018-12-06T06:49:37.454Z,19.75
2018-12-06T06:52:11.921Z,24.98
2018-12-06T06:54:46.596Z,19.05
2018-12-06T06:57:21.126Z,20.30
2018-12-06T06:59:52.825Z,20.45
2018-12-06T07:02:29.358Z,22.80
2018-12-06T07:05:03.254Z,17.75
2018-12-06T07:07:35.397Z,20.23
2018-12-06T07:12:59.603Z,25.80
2018-12-06T07:15:27.876Z,17.07
2018-12-06T07:17:56.052Z,20.43
2018-12-06T07:20:24.229Z,22.67
2018-12-06T07:22:52.398Z,23.90
2018-12-06T07:25:20.595Z,24.50
2018-12-06T07:27:48.851Z,30.48
2018-12-06T07:30:16.991Z,24.15
2018-12-06T07:32:45.169Z,30.88
2018-12-06T07:35:13.421Z,29.15
2018-12-06T07:37:41.545Z,26.77
2018-12-06T07:40:09.818Z,28.67
2018-12-06T07:42:37.999Z,29.57
2018-12-06T07:45:06.322Z,30.92
2018-12-06T07:47:34.548Z,28.07
2018-12-06T07:50:03.008Z,30.35
2018-12-06T07:52:31.110Z,29.80
2018-12-06T07:54:59.270Z,24.87
2018-12-06T07:57:28.863Z,26.73
2018-12-06T07:59:57.158Z,31.75
2018-12-06T08:02:25.318Z,26.75
2018-12-06T08:04:53.540Z,36.48
2018-12-06T08:07:21.773Z,38.25
2018-12-06T08:09:49.946Z,33.02
2018-12-06T08:12:18.164Z,35.45
2018-12-06T08:15:26.247Z,37.70
2018-12-06T08:17:54.376Z,41.60
2018-12-06T08:20:22.627Z,42.70
2018-12-06T08:22:50.859Z,43.70
2018-12-06T08:25:19.050Z,36.95
2018-12-06T08:27:47.182Z,43.75
2018-12-06T08:30:15.299Z,45.00
2018-12-06T08:32:43.519Z,47.80
2018-12-06T08:35:11.735Z,39.75
2018-12-06T08:37:40.010Z,42.03
2018-12-06T08:40:08.662Z,44.42
2018-12-06T08:42:36.858Z,42.93
2018-12-06T08:45:05.218Z,48.70
2018-12-06T08:47:33.419Z,42.15
2018-12-06T08:50:01.898Z,49.73
2018-12-06T08:55:40.258Z,43.45
2018-12-06T08:58:18.050Z,39.60
2018-12-06T09:00:52.122Z,45.60
2018-12-06T09:03:26.518Z,47.23
2018-12-06T09:06:02.837Z,38.10
2018-12-06T09:08:39.510Z,46.33
2018-12-06T09:11:15.868Z,48.55
2018-12-06T09:13:50.465Z,43.10
2018-12-06T09:16:18.726Z,37.30
2018-12-06T09:18:46.953Z,37.03
2018-12-06T09:21:15.212Z,36.90
2018-12-06T09:23:43.390Z,35.30
2018-12-06T09:26:11.644Z,44.33
2018-12-06T09:28:39.916Z,44.18
2018-12-06T09:31:08.235Z,39.88
2018-12-06T09:33:46.456Z,35.78
2018-12-06T09:36:14.779Z,43.17
2018-12-06T09:38:42.960Z,37.17
2018-12-06T09:41:11.249Z,42.65
2018-12-06T09:43:39.421Z,41.28
2018-12-06T09:46:07.668Z,44.18
2018-12-06T09:48:35.858Z,39.58
2018-12-06T09:51:04.337Z,40.85
2018-12-06T09:53:32.623Z,40.28
2018-12-06T09:56:01.042Z,39.20
2018-12-06T09:58:29.310Z,43.52
2018-12-06T10:00:57.536Z,37.00
2018-12-06T10:03:25.742Z,48.63
2018-12-06T10:05:53.971Z,42.15
2018-12-06T10:08:22.209Z,40.78
2018-12-06T10:10:50.493Z,45.25
2018-12-06T10:13:18.647Z,47.03
2018-12-06T10:15:46.936Z,47.33
2018-12-06T10:18:15.090Z,54.90
2018-12-06T10:20:43.333Z,42.50
2018-12-06T10:23:11.513Z,46.88
2018-12-06T10:25:39.755Z,45.12
2018-12-06T10:28:08.140Z,47.98
2018-12-06T10:30:36.525Z,42.78
2018-12-06T10:33:04.945Z,53.23
2018-12-06T10:35:33.283Z,50.80
2018-12-06T10:38:01.494Z,46.68
2018-12-06T10:40:29.998Z,45.95
2018-12-06T10:42:58.203Z,45.05
2018-12-06T10:45:26.805Z,40.52
2018-12-06T10:47:55.208Z,49.73
2018-12-06T10:50:23.522Z,45.10
2018-12-06T10:52:52.080Z,42.93
2018-12-06T10:55:20.406Z,52.45
2018-12-06T10:57:48.968Z,51.65
2018-12-06T11:00:22.869Z,49.45
2018-12-06T11:02:53.134Z,58.45
2018-12-06T11:05:21.303Z,61.35
2018-12-06T11:07:49.609Z,56.28
2018-12-06T11:10:18.357Z,56.28
2018-12-06T11:12:46.769Z,56.30
2018-12-06T11:15:15.058Z,62.13
2018-12-06T11:17:43.453Z,62.15
2018-12-06T11:20:11.716Z,58.65
2018-12-06T11:22:40.050Z,60.55
2018-12-06T11:25:08.487Z,55.52
2018-12-06T11:27:36.747Z,54.65
2018-12-06T11:30:06.053Z,67.27
2018-12-06T11:32:34.434Z,55.98
2018-12-06T11:35:02.872Z,57.75
2018-12-06T11:37:31.406Z,57.55
2018-12-06T11:39:59.675Z,53.33
2018-12-06T11:42:27.931Z,50.40
2018-12-06T11:44:56.082Z,55.80
2018-12-06T11:47:24.283Z,53.42
2018-12-06T11:49:53.498Z,51.83
2018-12-06T11:52:21.887Z,50.67
2018-12-06T11:54:50.469Z,56.68
2018-12-06T11:57:18.727Z,55.48
2018-12-06T11:59:47.531Z,56.00
2018-12-06T12:02:15.879Z,45.92
2018-12-06T12:04:44.203Z,63.13
2018-12-06T12:07:12.510Z,56.48
2018-12-06T12:09:40.980Z,52.62
2018-12-06T12:12:09.315Z,49.73
2018-12-06T12:14:38.443Z,56.45
2018-12-06T12:17:06.734Z,55.85
2018-12-06T12:19:35.233Z,57.40
2018-12-06T12:22:03.726Z,64.32
2018-12-06T12:24:32.078Z,63.60
2018-12-06T12:27:00.396Z,56.00
2018-12-06T12:29:28.658Z,58.15
2018-12-06T12:31:56.902Z,64.97
2018-12-06T12:34:25.532Z,61.73
2018-12-06T12:36:53.818Z,73.22
2018-12-06T12:39:22.078Z,63.10
2018-12-06T12:41:50.274Z,65.32
2018-12-06T12:44:18.644Z,64.77
2018-12-06T12:46:46.903Z,71.47
2018-12-06T12:49:15.134Z,66.70
2018-12-06T12:51:43.403Z,70.08
2018-12-06T12:54:11.703Z,66.70
2018-12-06T12:56:40.015Z,62.35
2018-12-06T12:59:08.407Z,80.47
2018-12-06T13:01:36.858Z,74.07
2018-12-06T13:04:05.206Z,75.87
2018-12-06T13:06:33.615Z,68.05
2018-12-06T13:09:02.467Z,75.50
2018-12-06T13:11:30.793Z,71.57
2018-12-06T13:13:59.067Z,74.92
2018-12-06T13:16:27.393Z,76.40
2018-12-06T13:18:55.664Z,81.05
2018-12-06T13:21:24.369Z,71.37
2018-12-06T13:23:52.595Z,78.20
2018-12-06T13:26:21.228Z,74.87
2018-12-06T13:28:49.414Z,80.85
2018-12-06T13:31:17.690Z,80.35
2018-12-06T13:33:45.980Z,76.67
2018-12-06T13:36:14.326Z,77.20
2018-12-06T13:38:42.500Z,78.97
2018-12-06T13:41:10.647Z,79.40
2018-12-06T13:43:38.845Z,75.20
2018-12-06T13:46:07.209Z,78.70
2018-12-06T13:48:36.594Z,80.53
2018-12-06T13:51:04.838Z,83.62
2018-12-06T13:53:33.187Z,77.78
2018-12-06T13:56:01.390Z,84.85
2018-12-06T13:58:29.778Z,73.60
2018-12-06T14:00:58.132Z,82.47
2018-12-06T14:03:26.487Z,79.77
2018-12-06T14:05:54.691Z,78.85
2018-12-06T14:08:22.963Z,75.15
2018-12-06T14:10:51.174Z,75.65
2018-12-06T14:13:23.614Z,78.87
2018-12-06T14:15:49.770Z,81.90
2018-12-06T14:18:17.939Z,86.45
2018-12-06T14:20:46.048Z,87.53
2018-12-06T14:23:14.275Z,80.15
2018-12-06T14:25:42.463Z,85.03
2018-12-06T14:28:10.652Z,96.08
2018-12-06T14:30:38.824Z,88.05
2018-12-06T14:33:07.050Z,79.77
2018-12-06T14:35:35.769Z,94.90
2018-12-06T14:38:04.141Z,90.92
2018-12-06T14:40:32.474Z,100.75
2018-12-06T14:43:01.878Z,96.82
2018-12-06T14:45:30.535Z,103.75
2018-12-06T14:48:26.862Z,90.97
2018-12-06T14:53:51.403Z,96.53
2018-12-06T14:56:19.944Z,99.85
2018-12-06T14:58:48.240Z,102.32
2018-12-06T15:01:16.544Z,89.85
2018-12-06T15:03:47.380Z,102.32
2018-12-06T15:06:16.000Z,90.42
2018-12-06T15:08:52.062Z,97.90
2018-12-06T15:11:24.492Z,99.80
2018-12-06T15:14:00.657Z,97.00
2018-12-06T15:19:14.257Z,102.02
2018-12-06T15:21:54.046Z,80.77
2018-12-06T15:27:19.426Z,81.40
2018-12-06T15:29:47.966Z,83.37
2018-12-06T15:32:16.442Z,76.65
2018-12-06T15:34:44.918Z,87.50
2018-12-06T15:37:13.198Z,89.67
2018-12-06T15:39:41.757Z,90.77
2018-12-06T15:42:11.481Z,78.50
2018-12-06T15:44:43.093Z,83.85
2018-12-06T15:47:12.837Z,88.37
2018-12-06T15:49:47.801Z,85.83
2018-12-06T15:55:12.684Z,77.60
2018-12-06T15:57:41.093Z,73.83
2018-12-06T16:00:16.150Z,73.33
2018-12-06T16:02:44.889Z,70.30
2018-12-06T16:05:13.311Z,71.60
2018-12-06T16:07:41.748Z,67.25
2018-12-06T16:10:10.853Z,68.75
2018-12-06T16:15:38.713Z,67.62
2018-12-06T16:18:07.184Z,69.62
2018-12-06T16:20:35.501Z,60.58
2018-12-06T16:23:04.595Z,61.90
2018-12-06T16:28:29.330Z,65.12
2018-12-06T16:31:03.819Z,62.55
2018-12-06T16:33:38.216Z,58.08
2018-12-06T16:36:24.701Z,60.80
2018-12-06T16:39:11.409Z,64.35
2018-12-06T16:41:57.850Z,68.22
2018-12-06T16:44:44.337Z,59.50
2018-12-06T16:47:16.158Z,63.68
2018-12-06T16:50:03.651Z,53.90
2018-12-06T16:52:38.225Z,58.92
2018-12-06T16:55:10.485Z,60.78
2018-12-06T16:57:39.395Z,56.70
2018-12-06T17:00:14.758Z,53.87
2018-12-06T17:02:49.245Z,62.43
2018-12-06T17:05:44.452Z,56.15
2018-12-06T17:08:18.553Z,52.33
2018-12-06T17:10:48.504Z,58.78
2018-12-06T17:13:19.849Z,54.67
2018-12-06T17:15:55.248Z,59.85
2018-12-06T17:18:29.158Z,56.60
2018-12-06T17:21:00.665Z,46.58
2018-12-06T17:23:41.210Z,54.35
2018-12-06T17:26:15.287Z,55.63
2018-12-06T17:29:03.564Z,57.58
2018-12-06T17:31:35.376Z,58.20
2018-12-06T17:34:09.565Z,51.08
2018-12-06T17:36:37.887Z,43.92
2018-12-06T17:39:07.947Z,47.30
2018-12-06T17:41:37.557Z,48.85
2018-12-06T17:44:05.842Z,41.92
2018-12-06T17:46:34.199Z,42.15
2018-12-06T17:49:02.460Z,39.25
2018-12-06T17:51:30.679Z,44.27
2018-12-06T17:53:58.915Z,44.20
2018-12-06T17:56:27.191Z,49.98
2018-12-06T17:58:55.443Z,51.08
2018-12-06T18:01:23.802Z,45.52
2018-12-06T18:03:52.049Z,42.38
2018-12-06T18:06:20.270Z,43.60
2018-12-06T18:08:48.455Z,47.30
2018-12-06T18:11:18.017Z,49.05
2018-12-06T18:13:46.517Z,50.12
2018-12-06T18:16:34.459Z,48.92
2018-12-06T18:19:19.880Z,53.35
2018-12-06T18:21:49.604Z,51.45
2018-12-06T18:24:24.137Z,54.95
2018-12-06T18:27:13.310Z,56.28
2018-12-06T18:29:43.765Z,55.05
2018-12-06T18:32:15.771Z,60.58
2018-12-06T18:40:40.019Z,68.62
2018-12-06T18:43:14.342Z,64.75
2018-12-06T18:48:41.631Z,65.22
2018-12-06T18:51:28.906Z,68.57
2018-12-06T18:54:07.223Z,76.50
2018-12-06T18:56:40.376Z,75.95
2018-12-06T18:59:14.244Z,78.33
2018-12-06T19:07:37.804Z,73.22
2018-12-06T19:10:06.306Z,78.12
2018-12-06T19:12:34.523Z,89.77
2018-12-06T19:15:03.234Z,77.90
2018-12-06T19:17:35.142Z,79.35
2018-12-06T19:20:03.656Z,78.90
2018-12-06T19:22:31.966Z,76.62
2018-12-06T19:25:01.094Z,75.20
2018-12-06T19:27:29.326Z,84.58
2018-12-06T19:29:57.747Z,80.50
2018-12-06T19:32:27.075Z,76.47
2018-12-06T19:34:56.617Z,79.82
2018-12-06T19:37:24.901Z,77.92
2018-12-06T19:39:53.283Z,83.78
2018-12-06T19:42:21.561Z,78.90
2018-12-06T19:44:49.791Z,86.08
2018-12-06T19:47:17.982Z,86.75
2018-12-06T19:49:46.209Z,89.85
2018-12-06T19:52:22.742Z,84.52
2018-12-06T19:54:50.989Z,69.15
2018-12-06T20:00:16.936Z,64.30
2018-12-06T20:02:47.015Z,65.85
2018-12-06T20:05:19.424Z,58.35
2018-12-06T20:07:49.152Z,57.98
2018-12-06T20:13:03.279Z,56.18
2018-12-06T20:15:35.466Z,62.10
2018-12-06T20:18:14.721Z,59.05
2018-12-06T20:20:48.670Z,58.83
2018-12-06T20:23:16.868Z,61.00
2018-12-06T20:26:01.716Z,69.55
2018-12-06T20:28:30.065Z,70.72
2018-12-06T20:30:58.418Z,74.05
2018-12-06T20:33:26.666Z,67.80
2018-12-06T20:35:54.874Z,68.92
2018-12-06T20:38:23.137Z,74.62
2018-12-06T20:40:51.537Z,67.82
2018-12-06T20:43:25.647Z,68.83
2018-12-06T20:46:05.114Z,70.25
2018-12-06T20:48:34.722Z,67.37
2018-12-06T20:51:23.795Z,73.78
2018-12-06T20:56:49.055Z,65.70
2018-12-06T20:59:18.568Z,65.78
2018-12-06T21:01:49.049Z,75.83
2018-12-06T21:04:17.264Z,74.58
2018-12-06T21:06:45.930Z,68.02
2018-12-06T21:09:16.353Z,73.92
2018-12-06T21:11:53.246Z,76.40
2018-12-06T21:14:22.272Z,66.02
2018-12-06T21:16:51.083Z,77.32
2018-12-06T21:19:19.511Z,73.75
2018-12-06T21:21:47.991Z,70.05
2018-12-06T21:24:16.930Z,65.47
2018-12-06T21:26:45.199Z,74.53
2018-12-06T21:29:19.588Z,74.72
2018-12-06T21:34:44.836Z,74.17
2018-12-06T21:40:09.609Z,79.62
2018-12-06T21:42:38.389Z,84.75
2018-12-06T21:45:25.112Z,88.07
2018-12-06T21:47:56.767Z,80.00
2018-12-06T21:50:31.903Z,82.85
2018-12-06T21:53:05.911Z,85.38
2018-12-06T21:55:34.564Z,87.80
2018-12-06T21:58:15.303Z,83.27
2018-12-06T22:03:40.476Z,91.67
2018-12-06T22:06:08.985Z,97.97
2018-12-06T22:08:37.428Z,88.42
2018-12-06T22:11:06.128Z,94.55
2018-12-06T22:13:40.299Z,97.22
2018-12-06T22:16:09.038Z,90.47
2018-12-06T22:18:37.437Z,92.40
2018-12-06T22:21:05.831Z,97.25
2018-12-06T22:23:34.391Z,97.62
2018-12-06T22:26:03.350Z,100.87
2018-12-06T22:28:34.270Z,88.25
2018-12-06T22:31:18.765Z,107.50
2018-12-06T22:33:52.409Z,90.07
2018-12-06T22:36:38.217Z,83.07
2018-12-06T22:39:10.671Z,81.63
2018-12-06T22:42:01.450Z,88.80
2018-12-06T22:44:45.653Z,86.15
2018-12-06T22:47:14.080Z,90.77
2018-12-06T22:49:42.356Z,85.97
2018-12-06T22:52:11.601Z,89.42
2018-12-06T22:54:53.449Z,83.17
2018-12-06T22:57:27.519Z,96.72
2018-12-06T23:00:02.205Z,91.80
2018-12-06T23:02:31.441Z,87.82
2018-12-06T23:05:22.142Z,88.35
2018-12-06T23:10:46.622Z,87.33
2018-12-06T23:13:15.082Z,90.53
2018-12-06T23:15:43.540Z,96.92
2018-12-06T23:18:12.510Z,95.22
2018-12-06T23:20:40.829Z,86.72
2018-12-06T23:23:09.153Z,90.72
2018-12-06T23:25:37.441Z,87.78
2018-12-06T23:28:06.050Z,96.12
2018-12-06T23:30:40.851Z,90.17
2018-12-06T23:33:21.801Z,88.92
2018-12-06T23:35:50.269Z,94.30
2018-12-06T23:38:18.505Z,94.07
2018-12-06T23:40:46.806Z,84.05
2018-12-06T23:43:15.031Z,101.47
2018-12-06T23:45:43.410Z,83.20
2018-12-06T23:48:11.637Z,82.40
2018-12-06T23:50:39.956Z,77.95
2018-12-06T23:53:08.154Z,80.80
2018-12-06T23:55:36.405Z,79.35
2018-12-06T23:58:04.678Z,79.12
